الصفحة الرئيسية
METAR-TAF:

METAR-TAF

مطار :

مطار الكويت الدولي

مدينة الكويت, الكويت

دائرة عرض: 29-13N, خط طول: 047-59E, ارتفاع: 55 متر

مراقبة الطقس الحالي

تاريخ ووقت الإصدار 56 دقيقة قبل الساعة 22:00UTC
ريح 3 عقدة من الجنوب الغربي
درجة الحرارة 32°درجة مئوية
الرطوبة 20%
ضغط 1007 hPa
الرؤية: 5000 متر
سماء صافية
(خفيف) العجاج

METAR: OKBK 222200Z 22003KT 5000 -HZ SKC 32/06 Q1007 NOSIG

زمن: 01:56 (22:56 UTC)

توقعات

تاريخ ووقت الإصدار 6ساعات و 11 دقيقة قبل الساعة 16:45UTC
التوقعات صالحة من22 الساعة 18 UTC إلى 23 الساعة 24 UTC
ريح 3 عقدةمن اتجاهات متغيرة
الرؤية: 6000 متر
مؤقت
من 22 الساعة 18 UTC إلى 22 الساعة 21 UTC
الرؤية: 4000 متر
العجاج
أصبح
من 22 الساعة 21 UTC إلى 22 الساعة 23 UTC
ريح 10 عقدة من الشمال/الشمال الغربي

TAF: OKBK 221645Z 2218/2324 VRB03KT 6000 NSC TEMPO 2218/2221 4000 HZ BECMG 2221/2223 33010KT

أرصاد الطقس والتوقعات من أكثر من 4000 مطار (تقارير الطقس للمطار METAR والتنبؤ بالطقس بالمطارTAF).

المحطات المتاحة هي النقط الصفراء والحمراء على الخريطة.

حرك المؤشر فوق النقطة لمعرفة اسم المحطة.

ثم انقر لمعرفة أرصاد وتوقعات الطقس.

لتغيير الخارطة: اضغط على الأزرار الخضراء مع رمز الصليب الأسود للتكبير. على الزر الأخضر مع شرطة للتصغير، أو على الأسهم الخضراء للخرائط المجاورة.


METAR-TAF: